DW4005 Mahon ES current weather conditions

sailwx.info

Wind from 336 at 1 knots gusting 6

Air temperature 18.9° C
Dewpoint 10.9° C

Last reported at 2015-Mar-29 11:49 UTC.
Time now 2015-Mar-29 12:29 UTC

Location: N 39°56' E 004°08'.
View on Google Maps.

See reports from other nearby stations

  
Tides and Currents Weather Stations Pressure Air Temp Water Temp Dewpoint Dewpoint Depression Visibility Wind Speed Wind Dir Waves Ship Positions
date/time (UTC)wind fromknots sea level pressurealtimeterstation pressurevisibilityair tempwater tempwave heightnotes
2015-Mar-29 11:49 336 1 gusting 6 18.9
2015-Mar-29 11:34 332 0 gusting 4 20.0
2015-Mar-29 11:19 327 0 gusting 2 20.0
2015-Mar-29 11:04 327 0 gusting 2 20.6
2015-Mar-29 10:49 327 0 gusting 1 20.6
2015-Mar-29 10:34 327 0 gusting 2 20.0
2015-Mar-29 10:19 327 0 gusting 5 19.4
2015-Mar-29 10:04 332 19.4
2015-Mar-29 09:49 332 18.9
2015-Mar-29 09:33 334 1 gusting 3 18.9
2015-Mar-29 09:18 336 0 gusting 3 18.3
2015-Mar-29 09:03 336 0 gusting 4 18.3
2015-Mar-29 08:48 038 17.8
2015-Mar-29 08:33 107 0 gusting 4 17.2
2015-Mar-29 08:18 117 1 gusting 5 17.2
2015-Mar-29 08:03 152 0 gusting 4 16.7
2015-Mar-29 07:48 196 16.7
2015-Mar-29 07:33 221 16.7
2015-Mar-29 07:18 227 16.7
2015-Mar-29 07:03 227 15.6
2015-Mar-29 06:48 230 1 gusting 4 14.4
2015-Mar-29 06:33 327 13.9
2015-Mar-29 06:20 327 0 gusting 1 13.3
2015-Mar-29 06:03 327 13.3
2015-Mar-29 05:48 327 13.3
2015-Mar-29 05:33 324 13.3
2015-Mar-29 05:18 295 13.3
2015-Mar-29 05:03 285 12.8
2015-Mar-29 04:48 285 1 gusting 5 12.8
2015-Mar-29 04:33 280 12.8
2015-Mar-29 04:18 280 12.8
2015-Mar-29 04:03 280 12.8
2015-Mar-29 03:48 280 12.8
2015-Mar-29 03:33 280 13.3
2015-Mar-29 03:18 280 0 gusting 1 13.3
2015-Mar-29 03:03 280 12.8
2015-Mar-29 02:48 280 12.8
2015-Mar-29 02:33 280 12.8
2015-Mar-29 02:18 281 13.3
2015-Mar-29 02:03 280 13.3
2015-Mar-29 01:48 280 13.3
2015-Mar-29 01:33 280 13.3
2015-Mar-29 01:18 280 13.3
2015-Mar-29 01:03 280 13.3
2015-Mar-29 00:48 280 13.3
2015-Mar-29 00:33 280 13.9
2015-Mar-29 00:18 280 13.9
2015-Mar-29 00:03 280 1 gusting 4 13.9
2015-Mar-28 23:48 289 2 gusting 6 13.9
2015-Mar-28 23:33 273 3 gusting 9 13.9
2015-Mar-28 23:18 288 0 gusting 4 13.9
2015-Mar-28 23:05 285 0 gusting 3 14.4
2015-Mar-28 22:48 284 0 gusting 3 15.0
2015-Mar-28 22:33 281 0 gusting 6 15.0
2015-Mar-28 22:18 276 1 gusting 5 15.0
2015-Mar-28 22:03 277 1 gusting 6 15.0
2015-Mar-28 21:48 321 2 gusting 6 15.0
2015-Mar-28 21:33 286 0 gusting 4 15.0
2015-Mar-28 21:18 261 3 gusting 6 15.0
2015-Mar-28 21:03 277 1 gusting 7 15.0
2015-Mar-28 20:48 279 2 gusting 8 15.0
2015-Mar-28 20:32 258 1 gusting 6 15.0
2015-Mar-28 20:17 294 0 gusting 3 15.0
2015-Mar-28 20:02 281 0 gusting 5 15.0
2015-Mar-28 19:47 308 0 gusting 4 15.0
2015-Mar-28 19:32 281 1 gusting 6 14.4
2015-Mar-28 19:17 275 1 gusting 6 15.0
2015-Mar-28 19:02 302 0 gusting 5 15.0
2015-Mar-28 18:47 276 0 gusting 5 15.0
2015-Mar-28 18:32 309 0 gusting 6 15.6
2015-Mar-28 18:17 305 0 gusting 6 15.6
2015-Mar-28 18:02 315 2 gusting 6 16.1
2015-Mar-28 17:47 323 0 gusting 5 16.7
2015-Mar-28 17:32 322 2 gusting 9 17.2
2015-Mar-28 17:17 312 1 gusting 8 17.8
2015-Mar-28 17:02 323 3 gusting 9 18.3
2015-Mar-28 16:47 271 3 gusting 7 18.3
2015-Mar-28 16:32 317 3 gusting 11 18.9
2015-Mar-28 16:17 331 2 gusting 10 18.9
2015-Mar-28 16:02 360 5 gusting 11 19.4
2015-Mar-28 15:48 319 2 gusting 8 19.4
2015-Mar-28 15:32 333 4 gusting 11 19.4
2015-Mar-28 15:17 337 5 gusting 11 20.0
2015-Mar-28 15:02 313 2 gusting 10 20.0
2015-Mar-28 14:47 321 3 gusting 13 20.0
2015-Mar-28 14:32 316 6 gusting 12 20.0
2015-Mar-28 14:17 318 3 gusting 10 20.0
2015-Mar-28 14:02 299 6 gusting 13 20.6
2015-Mar-28 13:47 329 2 gusting 12 20.0
2015-Mar-28 13:32 262 3 gusting 10 19.4
2015-Mar-28 13:17 333 3 gusting 11 20.0
2015-Mar-28 13:02 325 2 gusting 12 20.0
2015-Mar-28 12:47 317 3 gusting 11 19.4
2015-Mar-28 12:32 302 1 gusting 7 18.9
2015-Mar-28 12:17 316 4 gusting 10 18.9
2015-Mar-28 12:02 337 5 gusting 11 18.3
2015-Mar-28 11:47 318 5 gusting 11 17.8
2015-Mar-28 11:32 311 4 gusting 13 17.8
2015-Mar-28 11:17 340 7 gusting 17 17.8
2015-Mar-28 11:02 341 5 gusting 13 17.8
2015-Mar-28 10:47 319 5 gusting 13 17.2
2015-Mar-28 10:32 304 5 gusting 13 17.2
2015-Mar-28 10:17 331 6 gusting 15 17.2
2015-Mar-28 10:02 334 7 gusting 15 17.2
2015-Mar-28 09:47 328 6 gusting 12 17.2
2015-Mar-28 09:35 336 4 gusting 16 17.2
2015-Mar-28 09:17 304 7 gusting 17 16.7
2015-Mar-28 09:02 328 9 gusting 19 16.7
2015-Mar-28 08:49 348 6 gusting 18 16.7
2015-Mar-28 08:32 311 9 gusting 19 16.1
2015-Mar-28 08:17 308 6 gusting 19 16.1
2015-Mar-28 08:02 328 7 gusting 19 16.1
2015-Mar-28 07:47 342 9 gusting 20 15.6
2015-Mar-28 07:32 342 13 gusting 26 15.6
2015-Mar-28 07:17 329 11 gusting 21 15.6
2015-Mar-28 07:02 313 13 gusting 21 15.6
2015-Mar-28 06:47 329 13 gusting 21 15.6
2015-Mar-28 06:31 355 10 gusting 19 15.0
2015-Mar-28 06:16 317 11 gusting 20 15.0
2015-Mar-28 06:01 336 11 gusting 20 15.0
2015-Mar-28 05:46 313 12 gusting 22 15.0
2015-Mar-28 05:31 333 10 gusting 22 15.0
2015-Mar-28 05:16 344 13 gusting 20 15.0
2015-Mar-28 05:01 351 12 gusting 23 15.0
2015-Mar-28 04:46 325 7 gusting 19 15.0
2015-Mar-28 04:31 337 9 gusting 20 15.0
2015-Mar-28 04:16 327 13 gusting 23 15.0
2015-Mar-28 04:01 312 13 gusting 24 15.0
2015-Mar-28 03:46 319 10 gusting 25 15.0
2015-Mar-28 03:31 331 8 gusting 19 15.0
2015-Mar-28 03:16 313 10 gusting 22 14.4
2015-Mar-28 03:01 319 12 gusting 21 14.4
2015-Mar-28 02:46 331 9 gusting 22 14.4
2015-Mar-28 02:31 325 5 gusting 17 14.4
2015-Mar-28 02:18 314 6 gusting 12 14.4
2015-Mar-28 02:01 337 7 gusting 12 15.0
2015-Mar-28 01:46 316 6 gusting 16 15.0
2015-Mar-28 01:31 322 8 gusting 20 15.0
2015-Mar-28 01:16 327 6 gusting 16 14.4
2015-Mar-28 01:01 336 5 gusting 10 14.4
2015-Mar-28 00:46 341 6 gusting 12 13.9
2015-Mar-28 00:31 305 5 gusting 9 13.9
2015-Mar-28 00:16 313 4 gusting 9 13.9
2015-Mar-27 23:46 312 5 gusting 6 13.3
2015-Mar-27 23:31 348 5 gusting 8 13.3
2015-Mar-27 23:16 327 4 gusting 8 13.3
2015-Mar-27 23:01 306 2 gusting 11 13.3
2015-Mar-27 22:46 322 5 gusting 9 13.3
2015-Mar-27 22:31 320 2 gusting 10 13.9
2015-Mar-27 22:16 342 4 gusting 11 13.9
2015-Mar-27 22:01 333 4 gusting 8 13.9
2015-Mar-27 21:46 317 3 gusting 8 13.9
2015-Mar-27 21:31 307 3 gusting 6 13.9
2015-Mar-27 21:16 313 2 gusting 7 13.9
2015-Mar-27 21:01 308 2 gusting 7 13.3
2015-Mar-27 20:46 327 3 gusting 9 13.3
2015-Mar-27 20:31 338 5 gusting 10 13.3
2015-Mar-27 20:16 316 5 gusting 11 13.3
2015-Mar-27 20:01 310 5 gusting 10 13.9
2015-Mar-27 19:46 323 5 gusting 11 13.9
2015-Mar-27 19:31 317 6 gusting 16 13.9
2015-Mar-27 19:16 318 4 gusting 13 13.3
2015-Mar-27 19:02 304 2 gusting 10 13.3
2015-Mar-27 18:46 308 5 gusting 12 13.3
2015-Mar-27 18:31 322 6 gusting 12 13.3
2015-Mar-27 18:16 319 3 gusting 11 13.3
2015-Mar-27 18:01 313 4 gusting 11 13.3
2015-Mar-27 17:46 319 4 gusting 12 13.3
2015-Mar-27 17:31 291 3 gusting 9 14.4
2015-Mar-27 17:16 313 2 gusting 12 14.4
2015-Mar-27 17:01 317 4 gusting 12 14.4
2015-Mar-27 16:46 321 4 gusting 11 14.4
2015-Mar-27 16:31 320 5 gusting 13 14.4
2015-Mar-27 16:16 339 6 gusting 12 15.0
2015-Mar-27 16:01 338 6 gusting 12 15.0
2015-Mar-27 15:46 337 5 gusting 13 15.0
2015-Mar-27 15:31 319 5 gusting 16 15.0
2015-Mar-27 15:16 329 7 gusting 15 15.0
2015-Mar-27 15:01 323 6 gusting 11 15.6
2015-Mar-27 14:46 327 7 gusting 13 15.6
2015-Mar-27 14:31 329 5 gusting 12 15.6
2015-Mar-27 14:16 336 6 gusting 15 15.6
2015-Mar-27 13:46 341 7 gusting 17 15.6
2015-Mar-27 13:31 333 6 gusting 15 15.6
2015-Mar-27 13:16 327 6 gusting 15 15.6
2015-Mar-27 13:00 331 5 gusting 12 16.1
2015-Mar-27 12:45 314 6 gusting 13 16.1
2015-Mar-27 12:30 344 7 gusting 17 15.6
2015-Mar-27 12:15 313 8 gusting 16 15.6
2015-Mar-27 12:00 009 7 gusting 17 15.6